createdAt,value
2024-05-09T00:00:36.311Z,7.07
2024-05-09T00:03:08.139Z,7.63
2024-05-09T00:05:35.994Z,8.53
2024-05-09T00:08:03.472Z,6.63
2024-05-09T00:10:36.244Z,7.33
2024-05-09T00:13:06.154Z,7.43
2024-05-09T00:15:33.812Z,6.90
2024-05-09T00:18:01.128Z,5.88
2024-05-09T00:20:33.532Z,7.87
2024-05-09T00:23:06.784Z,7.20
2024-05-09T00:25:33.668Z,8.25
2024-05-09T00:28:00.350Z,6.43
2024-05-09T00:30:33.592Z,6.13
2024-05-09T00:33:04.041Z,5.15
2024-05-09T00:35:31.485Z,5.80
2024-05-09T00:37:58.220Z,7.23
2024-05-09T00:40:35.181Z,5.80
2024-05-09T00:43:06.342Z,6.18
2024-05-09T00:45:34.206Z,6.47
2024-05-09T00:48:07.129Z,6.53
2024-05-09T00:50:37.996Z,5.38
2024-05-09T00:53:10.814Z,5.57
2024-05-09T00:55:38.884Z,3.17
2024-05-09T00:58:07.680Z,3.67
2024-05-09T01:00:39.239Z,3.87
2024-05-09T01:03:10.542Z,3.47
2024-05-09T01:05:39.574Z,2.30
2024-05-09T01:08:07.631Z,4.93
2024-05-09T01:10:35.984Z,9.87
2024-05-09T01:13:04.564Z,3.93
2024-05-09T01:15:31.471Z,3.22
2024-05-09T01:18:00.898Z,5.33
2024-05-09T01:20:37.244Z,4.17
2024-05-09T01:23:10.009Z,3.25
2024-05-09T01:25:37.132Z,3.00
2024-05-09T01:28:03.953Z,3.20
2024-05-09T01:30:34.493Z,3.43
2024-05-09T01:33:05.000Z,3.40
2024-05-09T01:35:32.523Z,3.33
2024-05-09T01:37:59.280Z,3.57
2024-05-09T01:40:36.151Z,3.38
2024-05-09T01:43:05.718Z,6.57
2024-05-09T01:45:32.352Z,6.60
2024-05-09T01:47:59.287Z,4.05
2024-05-09T01:50:37.164Z,3.57
2024-05-09T01:53:08.147Z,4.87
2024-05-09T01:55:34.915Z,4.77
2024-05-09T01:58:01.564Z,4.35
2024-05-09T02:00:38.055Z,5.40
2024-05-09T02:03:14.998Z,4.17
2024-05-09T02:05:48.072Z,5.88
2024-05-09T02:08:18.036Z,5.17
2024-05-09T02:10:46.535Z,5.33
2024-05-09T02:13:13.655Z,6.63
2024-05-09T02:15:40.625Z,5.10
2024-05-09T02:18:08.188Z,4.67
2024-05-09T02:20:39.124Z,6.73
2024-05-09T02:23:06.777Z,7.03
2024-05-09T02:25:33.823Z,6.67
2024-05-09T02:28:00.667Z,4.80
2024-05-09T02:30:37.851Z,6.97
2024-05-09T02:33:08.227Z,5.27
2024-05-09T02:35:35.880Z,5.80
2024-05-09T02:38:02.923Z,5.00
2024-05-09T02:40:36.561Z,3.63
2024-05-09T02:43:06.432Z,6.17
2024-05-09T02:45:33.459Z,5.17
2024-05-09T02:48:00.797Z,3.78
2024-05-09T02:50:34.572Z,3.67
2024-05-09T02:53:06.133Z,2.87
2024-05-09T02:55:33.230Z,4.00
2024-05-09T02:58:00.027Z,4.37
2024-05-09T03:00:35.167Z,3.80
2024-05-09T03:03:08.317Z,3.67
2024-05-09T03:05:36.301Z,5.13
2024-05-09T03:08:03.260Z,4.07
2024-05-09T03:10:35.576Z,3.40
2024-05-09T03:13:13.908Z,3.50
2024-05-09T03:15:42.395Z,5.20
2024-05-09T03:18:09.385Z,5.73
2024-05-09T03:20:37.147Z,4.85
2024-05-09T03:23:05.470Z,4.13
2024-05-09T03:25:32.591Z,4.20
2024-05-09T03:27:59.481Z,5.82
2024-05-09T03:30:38.096Z,5.43
2024-05-09T03:33:13.501Z,3.37
2024-05-09T03:35:41.120Z,3.37
2024-05-09T03:38:07.878Z,3.60
2024-05-09T03:40:34.574Z,1.97
2024-05-09T03:43:01.157Z,3.40
2024-05-09T03:45:27.781Z,2.30
2024-05-09T03:47:54.712Z,2.90
2024-05-09T03:50:29.839Z,3.70
2024-05-09T03:53:01.666Z,3.70
2024-05-09T03:55:28.744Z,2.10
2024-05-09T03:57:55.423Z,2.40
2024-05-09T04:00:30.882Z,2.30
2024-05-09T04:03:04.443Z,3.95
2024-05-09T04:05:32.676Z,2.13
2024-05-09T04:07:59.527Z,3.23
2024-05-09T04:10:32.823Z,4.50
2024-05-09T04:13:01.195Z,5.00
2024-05-09T04:15:27.934Z,3.70
2024-05-09T04:17:54.799Z,4.50
2024-05-09T04:20:32.587Z,4.13
2024-05-09T04:23:05.579Z,3.33
2024-05-09T04:25:32.474Z,4.10
2024-05-09T04:27:59.160Z,3.20
2024-05-09T04:30:34.686Z,4.00
2024-05-09T04:33:06.178Z,3.50
2024-05-09T04:35:33.422Z,3.38
2024-05-09T04:38:00.514Z,3.60
2024-05-09T04:40:33.184Z,3.77
2024-05-09T04:43:03.432Z,3.63
2024-05-09T04:45:30.335Z,3.03
2024-05-09T04:47:57.239Z,3.40
2024-05-09T04:50:33.385Z,2.80
2024-05-09T04:53:04.365Z,3.45
2024-05-09T04:55:31.586Z,5.93
2024-05-09T04:57:58.296Z,4.03
2024-05-09T05:00:32.626Z,8.88
2024-05-09T05:03:10.092Z,4.50
2024-05-09T05:05:42.281Z,4.67
2024-05-09T05:08:16.605Z,3.20
2024-05-09T05:10:44.439Z,4.97
2024-05-09T05:13:20.284Z,5.73
2024-05-09T05:15:49.712Z,4.17
2024-05-09T05:18:16.822Z,4.70
2024-05-09T05:20:44.481Z,3.17
2024-05-09T05:23:13.750Z,4.07
2024-05-09T05:25:41.307Z,3.53
2024-05-09T05:28:08.276Z,5.27
2024-05-09T05:30:37.740Z,4.50
2024-05-09T05:33:06.097Z,5.10
2024-05-09T05:35:33.594Z,6.33
2024-05-09T05:38:00.511Z,10.43
2024-05-09T05:40:33.468Z,10.10
2024-05-09T05:43:10.810Z,12.60
2024-05-09T05:45:38.621Z,12.20
2024-05-09T05:48:07.341Z,13.83
2024-05-09T05:50:37.276Z,11.23
2024-05-09T05:53:09.858Z,12.33
2024-05-09T05:55:39.116Z,13.40
2024-05-09T05:58:09.242Z,13.65
2024-05-09T06:00:39.026Z,13.73
2024-05-09T06:03:08.460Z,13.60
2024-05-09T06:05:36.664Z,15.37
2024-05-09T06:08:03.596Z,15.23
2024-05-09T06:10:37.699Z,15.97
2024-05-09T06:13:07.528Z,15.10
2024-05-09T06:15:34.337Z,17.15
2024-05-09T06:18:01.634Z,16.27
2024-05-09T06:20:35.544Z,17.27
2024-05-09T06:23:05.779Z,17.48
2024-05-09T06:25:32.734Z,17.97
2024-05-09T06:28:00.605Z,14.67
2024-05-09T06:30:36.687Z,17.27
2024-05-09T06:33:07.597Z,17.08
2024-05-09T06:35:34.712Z,17.77
2024-05-09T06:38:01.733Z,17.03
2024-05-09T06:40:36.607Z,15.90
2024-05-09T06:43:10.997Z,18.67
2024-05-09T06:45:39.508Z,17.43
2024-05-09T06:48:07.106Z,18.73
2024-05-09T06:50:37.728Z,16.83
2024-05-09T06:53:06.021Z,17.90
2024-05-09T06:55:32.796Z,17.53
2024-05-09T06:57:59.521Z,15.40
2024-05-09T07:00:34.800Z,16.27
2024-05-09T07:03:14.973Z,18.43
2024-05-09T07:05:44.417Z,17.17
2024-05-09T07:08:11.416Z,18.67
2024-05-09T07:10:38.583Z,16.03
2024-05-09T07:13:13.454Z,16.25
2024-05-09T07:15:41.581Z,16.83
2024-05-09T07:18:13.095Z,16.10
2024-05-09T07:20:40.486Z,18.03
2024-05-09T07:23:12.568Z,16.92
2024-05-09T07:25:40.728Z,17.37
2024-05-09T07:28:13.439Z,13.40
2024-05-09T07:30:40.274Z,16.48
2024-05-09T07:33:07.038Z,16.60
2024-05-09T07:35:34.164Z,14.03
2024-05-09T07:38:01.068Z,15.25
2024-05-09T07:40:33.391Z,14.47
2024-05-09T07:43:04.308Z,14.70
2024-05-09T07:45:47.967Z,14.43
2024-05-09T07:53:39.123Z,16.20
2024-05-09T07:56:09.950Z,13.38
2024-05-09T07:58:37.406Z,16.73
2024-05-09T08:01:04.818Z,17.73
2024-05-09T08:03:31.641Z,14.32
2024-05-09T08:05:58.355Z,15.10
2024-05-09T08:08:25.031Z,14.27
2024-05-09T08:10:51.761Z,12.70
2024-05-09T08:13:18.533Z,14.02
2024-05-09T08:15:45.439Z,11.93
2024-05-09T08:18:12.386Z,11.83
2024-05-09T08:20:41.116Z,9.95
2024-05-09T08:23:07.874Z,16.63
2024-05-09T08:25:34.493Z,13.47
2024-05-09T08:28:01.336Z,12.50
2024-05-09T08:30:33.750Z,10.90
2024-05-09T08:33:04.628Z,11.30
2024-05-09T08:35:31.969Z,12.73
2024-05-09T08:37:59.048Z,12.63
2024-05-09T08:40:33.386Z,11.50
2024-05-09T08:43:05.664Z,11.77
2024-05-09T08:45:34.603Z,11.85
2024-05-09T08:48:05.775Z,11.03
2024-05-09T08:50:38.723Z,11.70
2024-05-09T08:53:07.485Z,11.63
2024-05-09T08:55:35.445Z,11.40
2024-05-09T08:58:04.061Z,10.67
2024-05-09T09:00:36.871Z,9.10
2024-05-09T09:03:09.090Z,9.35
2024-05-09T09:05:39.316Z,12.03
2024-05-09T09:08:08.242Z,9.70
2024-05-09T09:10:35.763Z,9.52
2024-05-09T09:13:09.423Z,13.07
2024-05-09T09:15:50.674Z,10.40
2024-05-09T09:18:18.678Z,9.32
2024-05-09T09:20:45.801Z,11.23
2024-05-09T09:23:12.620Z,10.07
2024-05-09T09:25:40.426Z,10.63
2024-05-09T09:28:07.778Z,9.85
2024-05-09T09:30:37.647Z,10.23
2024-05-09T09:33:12.013Z,11.63
2024-05-09T09:35:42.056Z,10.70
2024-05-09T09:38:10.441Z,9.73
2024-05-09T09:40:45.026Z,9.70
2024-05-09T09:43:20.224Z,15.57
2024-05-09T09:45:50.446Z,10.57
2024-05-09T09:48:17.378Z,9.97
2024-05-09T09:50:45.319Z,10.97
2024-05-09T09:53:13.792Z,9.60
2024-05-09T09:55:41.672Z,9.73
2024-05-09T09:58:13.198Z,9.83
2024-05-09T10:00:41.005Z,11.20
2024-05-09T10:03:07.744Z,10.80
2024-05-09T10:05:35.209Z,8.00
2024-05-09T10:08:07.335Z,7.85
2024-05-09T10:10:35.399Z,7.37
2024-05-09T10:13:09.036Z,8.93
2024-05-09T10:15:52.806Z,7.73
2024-05-09T10:18:27.011Z,6.45
2024-05-09T10:20:55.991Z,8.80
2024-05-09T10:23:27.877Z,10.57
2024-05-09T10:26:03.489Z,7.45
2024-05-09T10:28:37.440Z,9.50
2024-05-09T10:31:08.098Z,7.23
2024-05-09T10:33:52.645Z,7.50
2024-05-09T10:36:21.911Z,6.87
2024-05-09T10:38:49.783Z,5.37
2024-05-09T10:41:17.350Z,7.10
2024-05-09T10:43:44.204Z,7.38
2024-05-09T10:46:11.840Z,7.70
2024-05-09T10:48:39.592Z,6.20
2024-05-09T10:51:06.436Z,7.93
2024-05-09T10:53:40.941Z,6.73
2024-05-09T10:56:07.840Z,7.43
2024-05-09T10:58:34.743Z,9.57
2024-05-09T11:01:05.425Z,9.50
2024-05-09T11:03:33.448Z,8.03
2024-05-09T11:06:00.597Z,6.93
2024-05-09T11:08:27.662Z,8.05
2024-05-09T11:10:54.943Z,7.97
2024-05-09T11:13:32.044Z,7.33
2024-05-09T11:16:00.263Z,8.25
2024-05-09T11:18:35.333Z,8.60
2024-05-09T11:21:12.399Z,7.53
2024-05-09T11:23:39.790Z,9.02
2024-05-09T11:26:06.905Z,7.13
2024-05-09T11:28:33.540Z,7.47
2024-05-09T11:31:08.657Z,6.83
2024-05-09T11:33:45.319Z,8.18
2024-05-09T11:36:12.655Z,6.97
2024-05-09T11:38:39.567Z,10.90
2024-05-09T11:41:06.526Z,9.75
2024-05-09T11:43:33.690Z,7.93
2024-05-09T11:46:00.843Z,9.77
2024-05-09T11:48:28.256Z,10.15
2024-05-09T11:50:56.434Z,10.67
2024-05-09T11:53:23.194Z,10.20
2024-05-09T11:55:50.115Z,10.53
2024-05-09T11:58:18.360Z,10.77
2024-05-09T12:00:46.386Z,12.77
2024-05-09T12:03:13.532Z,10.83
2024-05-09T12:05:40.580Z,10.75
2024-05-09T12:08:07.625Z,10.50
2024-05-09T12:10:36.141Z,9.93
2024-05-09T12:13:05.846Z,9.90
2024-05-09T12:15:36.269Z,9.90
2024-05-09T12:18:04.577Z,9.33
2024-05-09T12:20:37.420Z,9.90
2024-05-09T12:23:07.533Z,10.95
2024-05-09T12:25:35.855Z,8.87
2024-05-09T12:28:02.636Z,8.87
2024-05-09T12:30:36.549Z,10.75
2024-05-09T12:33:12.101Z,7.97
2024-05-09T12:35:39.741Z,11.03
2024-05-09T12:38:06.486Z,10.05
2024-05-09T12:40:36.925Z,9.43
2024-05-09T12:43:09.962Z,11.23
2024-05-09T12:45:38.140Z,11.17
2024-05-09T12:48:08.229Z,8.93
2024-05-09T12:50:36.328Z,10.17
2024-05-09T12:53:04.321Z,10.07
2024-05-09T12:55:37.710Z,12.25
2024-05-09T12:58:11.973Z,9.17
2024-05-09T13:00:39.075Z,10.90
2024-05-09T13:03:06.317Z,12.10
2024-05-09T13:05:33.377Z,10.27
2024-05-09T13:08:00.803Z,11.67
2024-05-09T13:10:32.109Z,10.23
2024-05-09T13:13:00.907Z,12.15
2024-05-09T13:15:29.854Z,11.40
2024-05-09T13:18:00.288Z,11.73
2024-05-09T13:20:33.230Z,11.65
2024-05-09T13:23:03.261Z,11.63
2024-05-09T13:25:29.959Z,11.53
2024-05-09T13:27:57.585Z,10.45
2024-05-09T13:32:54.898Z,12.57
2024-05-09T13:35:21.676Z,10.77
2024-05-09T13:37:48.596Z,11.25
2024-05-09T13:40:23.214Z,12.43
2024-05-09T13:42:54.000Z,12.23
2024-05-09T13:45:20.665Z,11.68
2024-05-09T13:47:47.509Z,10.63
2024-05-09T13:50:23.180Z,9.80
2024-05-09T13:52:54.844Z,10.98
2024-05-09T13:55:21.512Z,9.77
2024-05-09T13:57:48.408Z,12.30
2024-05-09T14:00:27.324Z,11.00
2024-05-09T14:03:02.341Z,11.45
2024-05-09T14:05:29.230Z,11.60
2024-05-09T14:07:55.999Z,10.57
2024-05-09T14:10:28.561Z,11.63
2024-05-09T14:12:57.604Z,10.17
2024-05-09T14:15:24.309Z,9.90
2024-05-09T14:17:50.997Z,11.25
2024-05-09T14:20:28.153Z,11.10
2024-05-09T14:22:58.505Z,12.00
2024-05-09T14:25:28.589Z,11.83
2024-05-09T14:27:57.472Z,11.00
2024-05-09T14:30:31.014Z,12.73
2024-05-09T14:33:03.762Z,10.20
2024-05-09T14:35:30.653Z,11.32
2024-05-09T14:37:57.335Z,10.73
2024-05-09T14:42:53.613Z,12.38
2024-05-09T14:45:20.337Z,10.83
2024-05-09T14:47:47.086Z,10.93
2024-05-09T14:50:19.538Z,11.10
2024-05-09T14:52:54.211Z,13.07
2024-05-09T14:55:20.874Z,12.43
2024-05-09T14:57:47.682Z,13.03
2024-05-09T15:00:21.366Z,11.90
2024-05-09T15:02:53.136Z,10.77
2024-05-09T15:05:19.956Z,11.43
2024-05-09T15:07:46.700Z,12.23
2024-05-09T15:10:20.419Z,11.43
2024-05-09T15:12:50.678Z,11.37
2024-05-09T15:15:17.841Z,10.60
2024-05-09T15:17:45.033Z,14.65
2024-05-09T15:20:17.152Z,11.20
2024-05-09T15:22:46.976Z,11.73
2024-05-09T15:25:13.889Z,13.20
2024-05-09T15:27:40.767Z,14.60
2024-05-09T15:30:10.745Z,16.37
2024-05-09T15:32:37.969Z,16.08
2024-05-09T15:35:05.622Z,14.80
2024-05-09T15:37:32.654Z,12.13
2024-05-09T15:39:59.456Z,13.83
2024-05-09T15:42:26.127Z,18.77
2024-05-09T15:44:53.071Z,11.63
2024-05-09T15:47:20.154Z,14.27
2024-05-09T15:49:47.654Z,13.57
2024-05-09T15:52:17.760Z,16.20
2024-05-09T15:54:44.555Z,16.83
2024-05-09T15:57:11.957Z,16.08
2024-05-09T15:59:38.647Z,15.93
2024-05-09T16:02:05.872Z,17.17
2024-05-09T16:04:32.801Z,17.90
2024-05-09T16:06:59.643Z,16.63
2024-05-09T16:09:26.380Z,18.03
2024-05-09T16:11:53.021Z,15.23
2024-05-09T16:14:19.695Z,13.48
2024-05-09T16:16:46.943Z,13.80
2024-05-09T16:19:13.824Z,17.03
2024-05-09T16:21:40.508Z,17.33
2024-05-09T16:24:07.143Z,18.73
2024-05-09T16:26:33.828Z,18.63
2024-05-09T16:29:00.582Z,17.80
2024-05-09T16:31:27.330Z,17.73
2024-05-09T16:33:54.129Z,19.73
2024-05-09T16:36:21.321Z,19.43
2024-05-09T16:38:47.938Z,17.52
2024-05-09T16:41:15.555Z,17.07
2024-05-09T16:43:42.241Z,18.87
2024-05-09T16:46:09.026Z,20.17
2024-05-09T16:48:37.149Z,21.60
2024-05-09T16:51:03.906Z,18.57
2024-05-09T16:53:30.504Z,17.23
2024-05-09T16:55:57.275Z,18.38
2024-05-09T16:58:24.751Z,18.40
2024-05-09T17:00:51.651Z,17.80
2024-05-09T17:03:18.808Z,19.65
2024-05-09T17:05:46.680Z,19.13
2024-05-09T17:08:16.245Z,18.13
2024-05-09T17:10:44.562Z,19.63
2024-05-09T17:13:11.335Z,20.17
2024-05-09T17:15:38.206Z,21.73
2024-05-09T17:18:06.192Z,21.13
2024-05-09T17:20:36.234Z,20.67
2024-05-09T17:23:12.222Z,21.80
2024-05-09T17:25:42.127Z,19.07
2024-05-09T17:28:09.664Z,20.73
2024-05-09T17:30:38.602Z,21.07
2024-05-09T17:33:09.273Z,20.70
2024-05-09T17:35:37.468Z,20.00
2024-05-09T17:38:05.680Z,19.93
2024-05-09T17:40:35.883Z,18.60
2024-05-09T17:43:05.325Z,18.43
2024-05-09T17:45:32.996Z,20.13
2024-05-09T17:48:00.498Z,20.77
2024-05-09T17:50:34.735Z,17.33
2024-05-09T17:53:03.803Z,20.38
2024-05-09T17:55:30.530Z,19.63
2024-05-09T17:57:57.442Z,18.63
2024-05-09T18:00:33.528Z,18.40
2024-05-09T18:03:06.241Z,20.00
2024-05-09T18:05:34.030Z,18.63
2024-05-09T18:08:00.812Z,19.90
2024-05-09T18:10:35.150Z,21.33
2024-05-09T18:13:05.664Z,19.73
2024-05-09T18:15:32.993Z,18.97
2024-05-09T18:18:00.143Z,25.23
2024-05-09T18:22:56.491Z,18.30
2024-05-09T18:25:23.167Z,18.58
2024-05-09T18:27:50.053Z,18.77
2024-05-09T18:30:24.139Z,20.77
2024-05-09T18:32:58.327Z,20.40
2024-05-09T18:35:25.077Z,19.67
2024-05-09T18:37:52.810Z,19.27
2024-05-09T18:40:27.333Z,18.07
2024-05-09T18:42:58.082Z,18.63
2024-05-09T18:45:24.877Z,17.37
2024-05-09T18:47:51.729Z,19.57
2024-05-09T18:50:28.436Z,19.67
2024-05-09T18:53:01.381Z,18.40
2024-05-09T18:55:28.134Z,18.33
2024-05-09T18:57:54.795Z,19.87
2024-05-09T19:00:31.441Z,22.15
2024-05-09T19:03:04.690Z,17.43
2024-05-09T19:05:32.221Z,23.63
2024-05-09T19:07:59.559Z,18.55
2024-05-09T19:10:32.180Z,21.17
2024-05-09T19:13:02.845Z,20.13
2024-05-09T19:15:30.824Z,18.50
2024-05-09T19:17:58.151Z,20.90
2024-05-09T19:20:31.341Z,20.07
2024-05-09T19:23:00.605Z,18.60
2024-05-09T19:25:27.220Z,20.75
2024-05-09T19:27:53.891Z,19.73
2024-05-09T19:30:29.381Z,19.63
2024-05-09T19:33:04.019Z,17.98
2024-05-09T19:35:30.743Z,18.43
2024-05-09T19:37:57.382Z,18.43
2024-05-09T19:40:30.608Z,20.20
2024-05-09T19:42:59.646Z,18.03
2024-05-09T19:45:26.367Z,19.30
2024-05-09T19:47:53.213Z,17.33
2024-05-09T19:50:27.002Z,21.05
2024-05-09T19:53:03.018Z,20.17
2024-05-09T19:55:29.778Z,21.50
2024-05-09T19:57:56.671Z,20.23
2024-05-09T20:00:32.307Z,18.27
2024-05-09T20:03:02.385Z,21.33
2024-05-09T20:05:31.090Z,18.73
2024-05-09T20:07:58.243Z,25.53
2024-05-09T20:10:31.134Z,23.10
2024-05-09T20:12:59.749Z,21.40
2024-05-09T20:15:26.735Z,21.73
2024-05-09T20:17:53.769Z,22.93
2024-05-09T20:20:28.611Z,20.97
2024-05-09T20:23:03.226Z,21.75
2024-05-09T20:25:30.018Z,24.33
2024-05-09T20:27:56.823Z,25.10
2024-05-09T20:30:31.230Z,23.52
2024-05-09T20:33:01.185Z,27.37
2024-05-09T20:35:31.824Z,25.30
2024-05-09T20:37:59.263Z,25.67
2024-05-09T20:40:31.902Z,27.00
2024-05-09T20:43:02.304Z,25.13
2024-05-09T20:45:28.974Z,27.13
2024-05-09T20:47:56.028Z,30.38
2024-05-09T20:50:29.308Z,22.40
2024-05-09T20:53:03.740Z,26.77
2024-05-09T20:55:30.631Z,26.58
2024-05-09T20:57:57.623Z,27.73
2024-05-09T21:00:33.807Z,29.83
2024-05-09T21:03:06.523Z,28.40
2024-05-09T21:05:34.123Z,29.75
2024-05-09T21:08:01.224Z,29.07
2024-05-09T21:10:32.653Z,30.17
2024-05-09T21:13:01.693Z,30.33
2024-05-09T21:15:28.898Z,31.37
2024-05-09T21:17:55.580Z,28.70
2024-05-09T21:20:28.325Z,32.47
2024-05-09T21:22:57.818Z,34.60
2024-05-09T21:25:24.563Z,32.10
2024-05-09T21:27:51.743Z,32.93
2024-05-09T21:30:27.746Z,28.67
2024-05-09T21:33:04.581Z,30.57
2024-05-09T21:35:31.347Z,31.20
2024-05-09T21:37:57.966Z,28.80
2024-05-09T21:40:31.565Z,32.17
2024-05-09T21:43:01.713Z,27.27
2024-05-09T21:45:28.505Z,28.90
2024-05-09T21:47:55.386Z,28.97
2024-05-09T21:50:28.749Z,32.07
2024-05-09T21:53:03.670Z,31.80
2024-05-09T21:55:30.331Z,29.38
2024-05-09T21:57:57.215Z,30.20
2024-05-09T22:00:32.097Z,29.53
2024-05-09T22:03:03.487Z,31.55
2024-05-09T22:05:30.896Z,28.23
2024-05-09T22:07:57.793Z,28.27
2024-05-09T22:10:30.815Z,30.98
2024-05-09T22:13:01.594Z,30.63
2024-05-09T22:15:28.488Z,33.00
2024-05-09T22:17:57.122Z,30.53
2024-05-09T22:20:33.150Z,30.48
2024-05-09T22:23:04.220Z,32.37
2024-05-09T22:25:32.101Z,35.10
2024-05-09T22:28:00.140Z,28.52
2024-05-09T22:30:35.513Z,28.83
2024-05-09T22:33:09.778Z,26.70
2024-05-09T22:35:37.779Z,29.73
2024-05-09T22:38:04.546Z,31.67
2024-05-09T22:40:41.992Z,27.70
2024-05-09T22:43:17.347Z,30.53
2024-05-09T22:45:44.473Z,29.00
2024-05-09T22:48:11.257Z,30.50
2024-05-09T22:50:38.123Z,32.90
2024-05-09T22:53:05.479Z,32.85
2024-05-09T22:55:32.158Z,30.57
2024-05-09T22:57:58.921Z,33.17
2024-05-09T23:00:31.497Z,30.38
2024-05-09T23:03:00.847Z,26.23
2024-05-09T23:05:28.329Z,30.23
2024-05-09T23:07:55.133Z,29.30
2024-05-09T23:10:28.418Z,35.20
2024-05-09T23:13:01.802Z,34.40
2024-05-09T23:15:28.836Z,31.83
2024-05-09T23:17:55.796Z,35.20
2024-05-09T23:20:33.157Z,28.33
2024-05-09T23:23:05.126Z,31.70
2024-05-09T23:25:31.798Z,33.85
2024-05-09T23:27:58.707Z,31.17
2024-05-09T23:30:33.979Z,32.40
2024-05-09T23:33:05.668Z,32.93
2024-05-09T23:35:32.722Z,30.50
2024-05-09T23:37:59.597Z,27.10
2024-05-09T23:40:37.052Z,28.23
2024-05-09T23:43:07.310Z,28.65
2024-05-09T23:45:34.483Z,30.03
2024-05-09T23:48:01.633Z,23.17
2024-05-09T23:50:35.797Z,25.50
2024-05-09T23:53:06.551Z,22.20
2024-05-09T23:55:34.283Z,22.93
2024-05-09T23:58:01.136Z,20.67
